Time;durP1;ratioP1;P1;durP2;ratioP2;P2;SDS_P1;SDS_P2;PMS_P1;PMS_P2;Temp;Humidity;BMP_temperature;BMP_pressure;BME280_temperature;BME280_humidity;BME280_pressure;Samples;Min_cycle;Max_cycle;Signal;HPM_P1;HPM_P2
2022/05/03 00:01:42;;;;;;;3.77;3.37;;;8.20;99.90;;;;;;5032434;28;20307;-79
2022/05/03 00:04:14;;;;;;;4.10;3.70;;;8.10;99.90;;;;;;5039689;28;20518;-79
2022/05/03 00:07:00;;;;;;;5.83;3.77;;;8.10;99.90;;;;;;5037796;28;20170;-79
2022/05/03 00:09:43;;;;;;;4.43;3.17;;;8.10;99.90;;;;;;5037686;28;20268;-79
2022/05/03 00:12:12;;;;;;;4.23;3.67;;;8.10;99.90;;;;;;5038125;28;20194;-79
2022/05/03 00:14:50;;;;;;;3.73;3.40;;;8.10;99.90;;;;;;5038168;28;20180;-79
2022/05/03 00:17:18;;;;;;;5.93;2.87;;;8.10;99.90;;;;;;5038172;28;20224;-79
2022/05/03 00:19:45;;;;;;;3.83;3.00;;;8.10;99.90;;;;;;5037254;28;20308;-79
2022/05/03 00:22:12;;;;;;;7.43;3.73;;;8.10;99.90;;;;;;5038948;28;20194;-79
2022/05/03 00:24:39;;;;;;;5.00;3.17;;;8.10;99.90;;;;;;5038497;28;20194;-79
2022/05/03 00:27:05;;;;;;;7.90;3.20;;;8.00;99.90;;;;;;5038325;28;20215;-79
2022/05/03 00:29:33;;;;;;;4.73;3.50;;;8.00;99.90;;;;;;5040103;28;20172;-79
2022/05/03 00:32:03;;;;;;;4.30;2.87;;;8.00;99.90;;;;;;5039695;28;20186;-79
2022/05/03 00:34:31;;;;;;;5.33;2.93;;;8.00;99.90;;;;;;5039223;28;20215;-79
2022/05/03 00:36:56;;;;;;;3.60;2.90;;;8.00;99.90;;;;;;5037977;28;20178;-79
2022/05/03 00:39:22;;;;;;;3.23;2.93;;;8.00;99.90;;;;;;5039258;28;20219;-79
2022/05/03 00:42:07;;;;;;;5.67;3.40;;;7.90;99.90;;;;;;5040511;28;20301;-79
2022/05/03 00:45:00;;;;;;;4.00;3.30;;;7.90;99.90;;;;;;5039093;28;20500;-79
2022/05/03 00:47:39;;;;;;;3.67;3.30;;;7.90;99.90;;;;;;5038748;28;20261;-79
2022/05/03 00:50:07;;;;;;;3.13;2.70;;;7.80;99.90;;;;;;5037632;28;20188;-79
2022/05/03 00:52:52;;;;;;;3.47;3.00;;;7.80;99.90;;;;;;5038611;28;20209;-81
2022/05/03 00:55:37;;;;;;;2.87;2.60;;;7.70;99.90;;;;;;5039996;28;20703;-79
2022/05/03 00:58:26;;;;;;;4.53;3.30;;;7.70;99.90;;;;;;5038163;28;20180;-79
2022/05/03 01:01:24;;;;;;;3.63;3.33;;;7.60;99.90;;;;;;5039476;28;20612;-79
2022/05/03 01:04:19;;;;;;;3.13;2.83;;;7.50;99.90;;;;;;5039003;28;20189;-79
2022/05/03 01:06:58;;;;;;;3.33;2.80;;;7.50;99.90;;;;;;5049136;28;20177;-79
2022/05/03 01:09:29;;;;;;;3.27;2.97;;;7.50;99.90;;;;;;5058600;28;20180;-79
2022/05/03 01:11:58;;;;;;;3.40;3.10;;;7.40;99.90;;;;;;5058065;28;20197;-79
2022/05/03 01:14:59;;;;;;;3.20;2.80;;;7.40;99.90;;;;;;5040411;28;20178;-79
2022/05/03 01:17:35;;;;;;;3.00;2.80;;;7.40;99.90;;;;;;5038444;28;20196;-79
2022/05/03 01:20:05;;;;;;;3.53;2.43;;;7.30;99.90;;;;;;5037846;28;20190;-79
2022/05/03 01:22:58;;;;;;;2.90;2.60;;;7.30;99.90;;;;;;5039481;28;20732;-79
2022/05/03 01:25:48;;;;;;;3.50;3.20;;;7.20;99.90;;;;;;5039126;28;20277;-79
2022/05/03 01:28:30;;;;;;;3.87;3.47;;;7.10;99.90;;;;;;5039417;28;20238;-79
2022/05/03 01:31:10;;;;;;;3.10;2.80;;;7.10;99.90;;;;;;5037768;28;20190;-79
2022/05/03 01:33:43;;;;;;;4.07;3.20;;;7.10;99.90;;;;;;5039306;28;20651;-79
2022/05/03 01:36:10;;;;;;;6.53;3.50;;;7.10;99.90;;;;;;5037608;28;20273;-80
2022/05/03 01:39:02;;;;;;;3.40;3.10;;;7.10;99.90;;;;;;5037727;28;20448;-79
2022/05/03 01:41:29;;;;;;;3.43;3.00;;;7.00;99.90;;;;;;5038746;28;20198;-79
2022/05/03 01:44:00;;;;;;;4.43;3.40;;;7.00;99.90;;;;;;5038673;28;20253;-80
2022/05/03 01:46:33;;;;;;;3.90;3.13;;;7.00;99.90;;;;;;5038574;28;20174;-80
2022/05/03 01:51:44;;;;;;;3.50;3.20;;;6.80;99.90;;;;;;5039051;28;20248;-79
2022/05/03 01:54:41;;;;;;;3.53;3.23;;;6.80;99.90;;;;;;5038930;28;20182;-79
2022/05/03 01:57:28;;;;;;;5.50;2.77;;;6.80;99.90;;;;;;5038793;28;20166;-79
2022/05/03 02:00:06;;;;;;;3.53;3.17;;;6.80;99.90;;;;;;5040703;28;20208;-79
2022/05/03 02:02:54;;;;;;;3.50;3.03;;;6.80;99.90;;;;;;5037817;28;20668;-79
2022/05/03 02:06:00;;;;;;;3.10;2.73;;;6.80;99.90;;;;;;5039916;28;20213;-79
2022/05/03 02:08:49;;;;;;;3.53;3.00;;;6.80;99.90;;;;;;5038206;28;20186;-79
2022/05/03 02:11:37;;;;;;;3.07;2.53;;;6.70;99.90;;;;;;5037903;28;20257;-79
2022/05/03 02:14:46;;;;;;;3.17;2.87;;;6.60;99.90;;;;;;5039868;28;20636;-79
2022/05/03 02:17:11;;;;;;;3.80;2.63;;;6.60;99.90;;;;;;5040265;28;20417;-79
2022/05/03 02:19:51;;;;;;;3.80;3.40;;;6.60;99.90;;;;;;5040690;28;20182;-79
2022/05/03 02:22:41;;;;;;;3.63;3.13;;;6.50;99.90;;;;;;5038986;28;20237;-79
2022/05/03 02:25:42;;;;;;;3.43;3.13;;;6.50;99.90;;;;;;5042420;28;20170;-79
2022/05/03 02:28:24;;;;;;;3.97;3.10;;;6.50;99.90;;;;;;5036719;28;20177;-79
2022/05/03 02:30:51;;;;;;;3.73;3.00;;;6.40;99.90;;;;;;5043630;28;20320;-79
2022/05/03 02:33:28;;;;;;;3.37;3.07;;;6.40;99.90;;;;;;5035954;28;20539;-79
2022/05/03 02:35:59;;;;;;;5.00;3.33;;;6.40;99.90;;;;;;5035313;28;20212;-79
2022/05/03 02:38:42;;;;;;;4.53;3.37;;;6.30;99.90;;;;;;5034528;28;20176;-79
2022/05/03 02:41:11;;;;;;;3.73;2.83;;;6.30;99.90;;;;;;5037235;28;20292;-79
2022/05/03 02:43:38;;;;;;;3.37;3.07;;;6.30;99.90;;;;;;5038557;28;20589;-79
2022/05/03 02:46:40;;;;;;;4.00;3.17;;;6.40;99.90;;;;;;5036465;28;20171;-79
2022/05/03 02:49:14;;;;;;;4.93;3.03;;;6.30;99.90;;;;;;5036378;28;20178;-79
2022/05/03 02:51:47;;;;;;;2.77;2.40;;;6.40;99.90;;;;;;5036578;28;20217;-79
2022/05/03 02:54:30;;;;;;;3.63;2.67;;;6.40;99.90;;;;;;5037569;28;20164;-79
2022/05/03 02:57:31;;;;;;;4.37;3.70;;;6.30;99.90;;;;;;5037464;28;20162;-79
2022/05/03 03:03:19;;;;;;;3.60;3.17;;;6.40;99.90;;;;;;5037204;28;20209;-79
2022/05/03 03:05:53;;;;;;;4.03;3.27;;;6.40;99.90;;;;;;5036210;28;20174;-79
2022/05/03 03:08:19;;;;;;;4.13;3.40;;;6.40;99.90;;;;;;5035992;28;20178;-79
2022/05/03 03:11:01;;;;;;;4.27;2.87;;;6.30;99.90;;;;;;5036413;28;20185;-79
2022/05/03 03:13:52;;;;;;;6.23;3.50;;;6.30;99.90;;;;;;5035934;28;20436;-79
2022/05/03 03:16:33;;;;;;;4.07;3.47;;;6.30;99.90;;;;;;5040025;28;20409;-79
2022/05/03 03:19:19;;;;;;;5.83;3.17;;;6.30;99.90;;;;;;5035315;28;20512;-79
2022/05/03 03:21:47;;;;;;;4.10;3.67;;;6.20;99.90;;;;;;5034935;28;20469;-79
2022/05/03 03:24:15;;;;;;;4.80;3.80;;;6.30;99.90;;;;;;5034981;28;20193;-79
2022/05/03 03:26:43;;;;;;;5.27;4.23;;;6.20;99.90;;;;;;5036549;28;20198;-79
2022/05/03 03:29:10;;;;;;;3.90;3.43;;;6.10;99.90;;;;;;5034634;28;20221;-79
2022/05/03 03:31:36;;;;;;;5.57;4.10;;;6.20;99.90;;;;;;5034467;28;20248;-79
2022/05/03 03:34:05;;;;;;;4.27;3.53;;;6.10;99.90;;;;;;5036042;28;20699;-78
2022/05/03 03:36:33;;;;;;;4.73;4.00;;;6.10;99.90;;;;;;5035983;28;20181;-79
2022/05/03 03:38:59;;;;;;;4.40;4.00;;;6.00;99.90;;;;;;5035367;28;20675;-79
2022/05/03 03:41:25;;;;;;;4.13;3.60;;;6.00;99.90;;;;;;5035470;28;20202;-79
2022/05/03 03:43:52;;;;;;;3.77;3.37;;;6.10;99.90;;;;;;5035850;28;20181;-79
2022/05/03 03:46:19;;;;;;;5.23;3.90;;;6.00;99.90;;;;;;5035468;28;20166;-79
2022/05/03 03:48:45;;;;;;;4.70;4.17;;;6.00;99.90;;;;;;5035640;28;20172;-79
2022/05/03 03:51:14;;;;;;;5.50;4.20;;;6.00;99.90;;;;;;5035779;28;20463;-79
2022/05/03 03:53:41;;;;;;;5.87;4.03;;;6.00;99.90;;;;;;5034536;28;20230;-79
2022/05/03 03:56:07;;;;;;;4.63;4.13;;;6.00;99.90;;;;;;5036310;28;20420;-79
2022/05/03 03:58:34;;;;;;;5.50;4.13;;;6.00;99.90;;;;;;5036187;28;20420;-79
2022/05/03 04:01:00;;;;;;;5.90;4.40;;;6.00;99.90;;;;;;5037337;28;20214;-79
2022/05/03 04:03:26;;;;;;;4.90;4.30;;;6.00;99.90;;;;;;5038155;28;20804;-79
2022/05/03 04:05:52;;;;;;;7.97;5.53;;;6.10;99.90;;;;;;5038942;28;20170;-79
2022/05/03 04:08:18;;;;;;;7.83;6.07;;;6.00;99.90;;;;;;5039736;28;20170;-79
2022/05/03 04:10:45;;;;;;;7.40;6.10;;;6.00;99.90;;;;;;5037615;28;20190;-79
2022/05/03 04:13:13;;;;;;;7.43;5.83;;;6.00;99.90;;;;;;5039787;28;20537;-79
2022/05/03 04:15:39;;;;;;;7.80;5.73;;;6.00;99.90;;;;;;5039440;28;20246;-79
2022/05/03 04:18:08;;;;;;;6.27;5.00;;;6.10;99.90;;;;;;5039737;28;20614;-79
2022/05/03 04:20:34;;;;;;;5.60;4.40;;;6.00;99.90;;;;;;5038223;28;20709;-79
2022/05/03 04:23:00;;;;;;;7.90;5.93;;;5.90;99.90;;;;;;5038511;28;20190;-79
2022/05/03 04:25:26;;;;;;;8.03;5.67;;;6.00;99.90;;;;;;5038153;28;20413;-79
2022/05/03 04:27:52;;;;;;;8.10;6.40;;;5.90;99.90;;;;;;5038263;28;20421;-79
2022/05/03 04:30:17;;;;;;;9.53;6.80;;;5.80;99.90;;;;;;5039770;28;20686;-80
2022/05/03 04:32:43;;;;;;;9.37;6.47;;;5.90;99.90;;;;;;5038023;28;20293;-79
2022/05/03 04:35:09;;;;;;;9.17;5.63;;;5.90;99.90;;;;;;5041222;28;20312;-79
2022/05/03 04:37:35;;;;;;;10.40;6.17;;;5.90;99.90;;;;;;5039679;28;20177;-79
2022/05/03 04:40:01;;;;;;;10.67;6.63;;;6.00;99.90;;;;;;5039379;28;20444;-79
2022/05/03 04:42:26;;;;;;;8.53;6.40;;;5.90;99.90;;;;;;5037959;28;20261;-79
2022/05/03 04:44:52;;;;;;;5.27;4.53;;;5.90;99.90;;;;;;5039025;28;20177;-79
2022/05/03 04:47:18;;;;;;;7.40;4.43;;;6.00;99.90;;;;;;5037951;28;20205;-79
2022/05/03 04:49:44;;;;;;;6.40;3.90;;;5.90;99.90;;;;;;5039438;28;20413;-78
2022/05/03 04:52:10;;;;;;;5.30;4.27;;;5.90;99.90;;;;;;5037372;28;20205;-79
2022/05/03 04:54:36;;;;;;;6.17;4.47;;;5.90;99.90;;;;;;5038925;28;20207;-79
2022/05/03 04:57:07;;;;;;;6.63;4.17;;;6.00;99.90;;;;;;5037856;28;20436;-81
2022/05/03 04:59:33;;;;;;;5.03;4.40;;;6.00;99.90;;;;;;5036764;28;20193;-78
2022/05/03 05:01:59;;;;;;;8.37;4.83;;;6.10;99.90;;;;;;5038647;28;20209;-79
2022/05/03 05:04:25;;;;;;;4.50;3.87;;;6.10;99.90;;;;;;5038124;28;20182;-79
2022/05/03 05:06:50;;;;;;;5.07;4.10;;;6.20;99.90;;;;;;5039073;28;20174;-79
2022/05/03 05:09:16;;;;;;;5.53;3.83;;;6.20;99.90;;;;;;5040107;28;20178;-79
2022/05/03 05:11:42;;;;;;;5.77;3.80;;;6.30;99.90;;;;;;5041808;28;20198;-80
2022/05/03 05:14:07;;;;;;;7.33;3.73;;;6.40;99.90;;;;;;5042178;28;20176;-79
2022/05/03 05:16:33;;;;;;;5.40;3.57;;;6.40;99.90;;;;;;5041958;28;20187;-80
2022/05/03 05:18:59;;;;;;;6.00;3.70;;;6.50;99.90;;;;;;5041238;28;20178;-80
2022/05/03 05:21:24;;;;;;;7.27;3.67;;;6.60;99.90;;;;;;5040171;28;20293;-80
2022/05/03 05:23:50;;;;;;;4.73;3.33;;;6.60;99.90;;;;;;5040118;28;20170;-80
2022/05/03 05:26:16;;;;;;;3.33;2.93;;;6.70;99.90;;;;;;5041262;28;20171;-80
2022/05/03 05:28:41;;;;;;;4.83;3.53;;;6.70;99.90;;;;;;5040776;28;20175;-80
2022/05/03 05:31:07;;;;;;;3.57;3.17;;;6.80;99.90;;;;;;5038156;28;20196;-80
2022/05/03 05:33:33;;;;;;;4.60;3.37;;;6.80;99.90;;;;;;5036984;28;20697;-80
2022/05/03 05:35:59;;;;;;;4.00;3.37;;;6.90;99.90;;;;;;5038726;28;20175;-79
2022/05/03 05:38:24;;;;;;;4.03;3.13;;;7.00;99.90;;;;;;5036523;28;20183;-79
2022/05/03 05:40:52;;;;;;;5.30;3.20;;;7.20;99.90;;;;;;5036245;28;20266;-79
2022/05/03 05:43:17;;;;;;;3.50;3.00;;;7.20;99.90;;;;;;5034010;28;20191;-80
2022/05/03 05:45:44;;;;;;;4.97;3.20;;;7.20;99.90;;;;;;5035586;28;20695;-80
2022/05/03 05:48:10;;;;;;;5.50;3.80;;;7.30;99.90;;;;;;5040131;28;20206;-79
2022/05/03 05:50:37;;;;;;;3.33;3.03;;;7.40;99.90;;;;;;5039641;28;20185;-79
2022/05/03 05:55:46;;;;;;;6.93;3.30;;;7.60;99.90;;;;;;5041067;28;20236;-79
2022/05/03 05:58:12;;;;;;;5.67;3.17;;;7.80;99.90;;;;;;5041461;28;20171;-78
2022/05/03 06:00:38;;;;;;;5.03;3.57;;;7.90;99.90;;;;;;5040819;28;20609;-79
2022/05/03 06:03:04;;;;;;;5.60;2.80;;;8.00;99.90;;;;;;5040804;28;20645;-79
2022/05/03 06:05:31;;;;;;;4.50;2.40;;;8.00;99.90;;;;;;5039790;28;20205;-79
2022/05/03 06:07:57;;;;;;;3.57;2.63;;;8.10;99.90;;;;;;5041149;28;20171;-79
2022/05/03 06:10:23;;;;;;;3.70;2.27;;;8.20;99.90;;;;;;5040514;28;20172;-79
2022/05/03 06:12:49;;;;;;;3.87;2.40;;;8.40;99.90;;;;;;5040494;28;20243;-79
2022/05/03 06:15:15;;;;;;;3.03;2.53;;;8.40;99.90;;;;;;5039575;28;20175;-79
2022/05/03 06:17:42;;;;;;;3.90;2.87;;;8.40;99.90;;;;;;5040216;28;20535;-79
2022/05/03 06:20:11;;;;;;;2.90;2.53;;;8.60;99.90;;;;;;5038041;28;20205;-79
2022/05/03 06:22:37;;;;;;;3.67;2.53;;;8.80;99.90;;;;;;5037280;28;20200;-79
2022/05/03 06:25:03;;;;;;;3.20;2.40;;;8.90;99.90;;;;;;5037940;28;20182;-79
2022/05/03 06:27:29;;;;;;;2.53;2.33;;;9.00;99.90;;;;;;5039738;28;20535;-79
2022/05/03 06:29:54;;;;;;;4.03;2.40;;;9.10;99.90;;;;;;5039100;28;20176;-79
2022/05/03 06:32:20;;;;;;;3.87;2.17;;;9.30;99.90;;;;;;5039296;28;20205;-79
2022/05/03 06:34:46;;;;;;;5.20;2.20;;;9.40;99.90;;;;;;5039589;28;20176;-79
2022/05/03 06:37:17;;;;;;;3.53;2.50;;;9.50;99.90;;;;;;5038740;28;20221;-79
2022/05/03 06:39:43;;;;;;;2.37;2.17;;;9.70;99.90;;;;;;5037867;28;20194;-79
2022/05/03 06:42:10;;;;;;;3.73;2.40;;;9.80;99.90;;;;;;5038734;28;20240;-79
2022/05/03 06:44:37;;;;;;;2.73;2.47;;;9.80;99.90;;;;;;5037272;28;20235;-79
2022/05/03 06:47:03;;;;;;;6.67;2.57;;;9.90;99.90;;;;;;5036493;28;20176;-79
2022/05/03 06:49:29;;;;;;;3.27;2.60;;;10.00;99.90;;;;;;5036159;28;20207;-79
2022/05/03 06:51:55;;;;;;;5.10;2.70;;;;;;;;;;5036459;28;20204;-79
2022/05/03 06:54:21;;;;;;;2.80;2.30;;;10.40;99.90;;;;;;5038973;28;20280;-80
2022/05/03 06:56:46;;;;;;;3.20;2.63;;;10.60;99.90;;;;;;5038695;28;20189;-80
2022/05/03 06:59:12;;;;;;;5.27;2.33;;;10.80;99.90;;;;;;5040156;28;20524;-80
2022/05/03 07:01:37;;;;;;;3.23;2.70;;;11.00;99.90;;;;;;5040096;28;20212;-79
2022/05/03 07:04:03;;;;;;;5.27;2.10;;;11.20;99.90;;;;;;5040005;28;20173;-79
2022/05/03 07:06:29;;;;;;;3.40;2.20;;;11.30;99.90;;;;;;5039633;28;20174;-79
2022/05/03 07:08:54;;;;;;;3.37;2.77;;;11.50;99.90;;;;;;5037391;28;20190;-79
2022/05/03 07:11:20;;;;;;;2.37;2.10;;;11.90;99.90;;;;;;5036949;28;20177;-80
2022/05/03 07:13:48;;;;;;;2.23;1.90;;;11.90;99.90;;;;;;5039004;28;20355;-79
2022/05/03 07:16:14;;;;;;;2.90;2.17;;;12.10;99.90;;;;;;5037525;28;20208;-79
2022/05/03 07:24:08;;;;;;;3.33;2.10;;;12.70;99.90;;;;;;5039141;28;20190;-79
2022/05/03 07:26:34;;;;;;;2.47;2.17;;;12.90;99.90;;;;;;5039009;28;20620;-79
2022/05/03 07:29:00;;;;;;;5.00;2.43;;;13.00;99.90;;;;;;5039161;28;20177;-79
2022/05/03 07:31:25;;;;;;;3.37;2.13;;;13.20;99.90;;;;;;5038810;28;20597;-80
2022/05/03 07:33:51;;;;;;;5.10;2.70;;;13.40;99.90;;;;;;5040630;28;20174;-79
2022/05/03 07:36:20;;;;;;;5.40;3.30;;;13.60;99.90;;;;;;5041576;28;20707;-80
2022/05/03 07:38:46;;;;;;;6.00;3.87;;;13.70;99.90;;;;;;5042459;28;20190;-80
2022/05/03 07:41:12;;;;;;;4.07;3.67;;;13.80;99.90;;;;;;5041026;28;20217;-79
2022/05/03 07:43:38;;;;;;;5.77;4.53;;;14.00;99.90;;;;;;5041455;28;20284;-80
2022/05/03 07:46:04;;;;;;;5.57;4.97;;;14.20;99.90;;;;;;5041334;28;20178;-80
2022/05/03 07:48:30;;;;;;;7.63;6.57;;;14.50;99.90;;;;;;5041974;28;20183;-80
2022/05/03 07:50:55;;;;;;;6.97;5.90;;;14.90;99.90;;;;;;5042140;28;20184;-80
2022/05/03 07:53:21;;;;;;;6.67;5.90;;;15.40;99.90;;;;;;5042470;28;20672;-80
2022/05/03 07:55:48;;;;;;;6.47;5.77;;;16.10;99.90;;;;;;5042774;28;20190;-80
2022/05/03 07:58:15;;;;;;;6.43;5.67;;;16.90;99.90;;;;;;5042698;28;20175;-79
2022/05/03 08:00:41;;;;;;;7.63;5.47;;;17.70;99.90;;;;;;5041966;28;20239;-79
2022/05/03 08:03:06;;;;;;;7.27;5.23;;;18.50;99.90;;;;;;5040728;28;20207;-80
2022/05/03 08:05:32;;;;;;;7.63;6.47;;;18.90;99.90;;;;;;5039553;28;20266;-79
2022/05/03 08:07:58;;;;;;;7.60;6.43;;;19.40;99.90;;;;;;5040889;28;20531;-80
2022/05/03 08:10:23;;;;;;;6.57;5.87;;;20.10;99.90;;;;;;5040313;28;20228;-79
2022/05/03 08:12:52;;;;;;;7.07;5.50;;;20.50;96.80;;;;;;5040909;28;20190;-80
2022/05/03 08:15:22;;;;;;;7.10;5.80;;;21.00;96.50;;;;;;5038957;28;20181;-80
2022/05/03 08:17:47;;;;;;;7.47;6.10;;;21.30;95.40;;;;;;5038863;28;20181;-80
2022/05/03 08:20:14;;;;;;;7.13;5.90;;;21.70;94.20;;;;;;5040006;28;20301;-80
2022/05/03 08:22:41;;;;;;;5.70;5.20;;;22.10;94.20;;;;;;5039833;28;20213;-80
2022/05/03 08:25:08;;;;;;;8.23;6.07;;;20.90;94.30;;;;;;5039119;28;20174;-80
2022/05/03 08:27:36;;;;;;;6.50;5.90;;;20.50;94.10;;;;;;5039300;28;20209;-80
2022/05/03 08:30:02;;;;;;;5.90;5.40;;;19.40;94.20;;;;;;5037468;28;20220;-80
2022/05/03 08:32:28;;;;;;;8.23;6.47;;;18.90;95.30;;;;;;5038147;28;20197;-80
2022/05/03 08:34:54;;;;;;;8.83;6.23;;;18.30;96.00;;;;;;5036278;28;20536;-80
2022/05/03 08:42:48;;;;;;;6.87;6.13;;;16.80;98.00;;;;;;5042474;28;20236;-80
2022/05/03 08:45:14;;;;;;;9.23;6.20;;;16.60;99.90;;;;;;5040135;28;20173;-80
2022/05/03 08:47:41;;;;;;;9.97;6.83;;;16.40;99.90;;;;;;5040181;28;20174;-81
2022/05/03 08:50:11;;;;;;;6.57;5.97;;;16.20;99.90;;;;;;5041054;28;20516;-80
2022/05/03 08:52:48;;;;;;;6.33;5.37;;;16.00;99.90;;;;;;5041654;28;20737;-81
2022/05/03 08:55:14;;;;;;;5.87;5.07;;;15.90;99.90;;;;;;5041480;28;20236;-79
2022/05/03 08:57:45;;;;;;;7.63;5.50;;;16.00;99.90;;;;;;5041819;28;20173;-80
2022/05/03 09:00:12;;;;;;;6.83;5.50;;;16.10;99.90;;;;;;5039743;28;20608;-80
2022/05/03 09:02:46;;;;;;;6.33;5.73;;;16.00;99.90;;;;;;5041844;28;20262;-80
2022/05/03 09:05:13;;;;;;;6.60;5.93;;;15.80;99.90;;;;;;5041453;28;20166;-80
2022/05/03 09:07:39;;;;;;;8.30;5.87;;;15.70;99.90;;;;;;5041512;28;20169;-81
2022/05/03 09:10:21;;;;;;;6.27;5.70;;;15.60;99.90;;;;;;5039498;28;20222;-81
2022/05/03 09:12:48;;;;;;;8.77;5.70;;;15.40;99.90;;;;;;5040554;28;20202;-80
2022/05/03 09:15:14;;;;;;;6.80;6.03;;;16.10;99.90;;;;;;5042059;28;20172;-80
2022/05/03 09:17:43;;;;;;;7.97;6.00;;;17.50;99.90;;;;;;5040836;28;20584;-81
2022/05/03 09:23:49;;;;;;;7.73;5.83;;;19.80;99.90;;;;;;5042621;28;20624;-81
2022/05/03 09:26:23;;;;;;;7.40;5.30;;;20.80;99.30;;;;;;5042920;28;20556;-81
2022/05/03 09:28:55;;;;;;;5.90;5.30;;;21.70;97.90;;;;;;5041663;28;20205;-81
2022/05/03 09:31:41;;;;;;;6.63;5.53;;;21.90;95.30;;;;;;5041229;28;20541;-81
2022/05/03 09:34:18;;;;;;;8.33;6.60;;;22.20;96.20;;;;;;5043073;28;20224;-81
2022/05/03 09:36:50;;;;;;;5.93;5.30;;;21.60;94.50;;;;;;5043268;28;20173;-81
2022/05/03 09:39:29;;;;;;;9.27;5.30;;;21.50;97.20;;;;;;5042548;28;20221;-81
2022/05/03 09:42:07;;;;;;;6.43;5.40;;;21.30;96.70;;;;;;5042192;28;20218;-81
2022/05/03 09:44:52;;;;;;;5.20;4.67;;;20.30;96.50;;;;;;5043202;28;20179;-81
2022/05/03 09:47:20;;;;;;;8.63;5.20;;;19.30;97.70;;;;;;5042270;28;20174;-81
2022/05/03 09:49:46;;;;;;;6.23;5.57;;;18.30;99.00;;;;;;5041363;28;20186;-81
2022/05/03 09:52:33;;;;;;;6.50;5.50;;;17.70;99.90;;;;;;5042014;28;20202;-81
2022/05/03 09:55:09;;;;;;;6.50;5.77;;;17.30;99.90;;;;;;5043023;28;20209;-81
2022/05/03 09:57:38;;;;;;;6.87;5.80;;;17.00;99.90;;;;;;5042318;28;20174;-81
2022/05/03 10:00:08;;;;;;;7.00;6.23;;;16.80;99.90;;;;;;5049832;28;20201;-80
2022/05/03 10:02:35;;;;;;;7.67;6.33;;;16.60;99.90;;;;;;5049711;28;20228;-81
2022/05/03 10:05:00;;;;;;;9.30;5.67;;;16.50;99.90;;;;;;5048583;28;20166;-80
2022/05/03 10:07:27;;;;;;;7.17;5.53;;;16.40;99.90;;;;;;5054012;28;20183;-80
2022/05/03 10:09:53;;;;;;;8.07;5.70;;;16.30;99.90;;;;;;5056258;28;20210;-79
2022/05/03 10:12:19;;;;;;;6.50;5.17;;;16.20;99.90;;;;;;5045191;28;20284;-80
2022/05/03 10:14:46;;;;;;;6.27;5.70;;;16.10;99.90;;;;;;5040006;28;20236;-80
2022/05/03 10:20:40;;;;;;;7.93;6.57;;;16.20;99.90;;;;;;5041091;28;20393;-81
2022/05/03 10:23:31;;;;;;;5.47;4.97;;;16.30;99.90;;;;;;5040521;28;20258;-81
2022/05/03 10:26:01;;;;;;;6.70;5.17;;;16.60;99.90;;;;;;5042074;28;20205;-80
2022/05/03 10:29:01;;;;;;;5.97;5.37;;;17.20;99.90;;;;;;5040979;28;20244;-81
2022/05/03 10:31:27;;;;;;;9.43;5.47;;;18.40;99.90;;;;;;5042385;28;20274;-80
2022/05/03 10:33:53;;;;;;;9.27;5.63;;;19.60;99.90;;;;;;5041255;28;20202;-80
2022/05/03 10:36:33;;;;;;;6.57;4.40;;;20.60;99.90;;;;;;5042331;28;20180;-81
2022/05/03 10:39:11;;;;;;;5.40;4.90;;;21.60;97.90;;;;;;5042249;28;20185;-81
2022/05/03 10:41:54;;;;;;;7.10;4.73;;;21.80;96.70;;;;;;5043189;28;20201;-81
2022/05/03 10:44:42;;;;;;;6.67;5.30;;;21.70;94.90;;;;;;5041811;28;20174;-81
2022/05/03 10:47:13;;;;;;;5.17;4.67;;;22.10;94.80;;;;;;5041592;28;20249;-81
2022/05/03 10:50:10;;;;;;;7.07;4.97;;;22.60;94.40;;;;;;5044355;28;20158;-81
2022/05/03 10:52:36;;;;;;;4.40;4.00;;;22.60;92.40;;;;;;5041027;28;20219;-82
2022/05/03 10:55:09;;;;;;;5.30;4.17;;;22.60;92.60;;;;;;5040588;28;20202;-81
2022/05/03 10:58:12;;;;;;;6.13;4.20;;;23.20;91.70;;;;;;5041567;28;20180;-78
2022/05/03 11:01:06;;;;;;;5.53;4.47;;;23.30;90.00;;;;;;5039274;28;20192;-78
2022/05/03 11:03:36;;;;;;;6.00;4.87;;;22.90;87.10;;;;;;5039402;28;20188;-79
2022/05/03 11:06:26;;;;;;;7.30;4.03;;;22.70;87.70;;;;;;5039983;28;20247;-79
2022/05/03 11:11:38;;;;;;;5.20;3.50;;;21.30;91.00;;;;;;5043349;28;20201;-78
2022/05/03 11:14:05;;;;;;;3.77;3.47;;;20.50;91.20;;;;;;5044134;28;20175;-81
2022/05/03 11:16:40;;;;;;;4.00;3.70;;;20.30;91.80;;;;;;5044273;28;20632;-81
2022/05/03 11:19:19;;;;;;;8.27;3.87;;;20.50;91.70;;;;;;5043494;28;20170;-81
2022/05/03 11:21:47;;;;;;;4.00;3.70;;;20.90;92.20;;;;;;5041608;28;20709;-81
2022/05/03 11:24:23;;;;;;;4.10;3.70;;;20.80;90.80;;;;;;5041211;28;20181;-80
2022/05/03 11:26:52;;;;;;;4.47;3.70;;;20.40;90.80;;;;;;5040432;28;20182;-80
2022/05/03 11:29:18;;;;;;;4.07;3.70;;;20.10;92.00;;;;;;5041151;28;20630;-80
2022/05/03 11:31:48;;;;;;;6.17;3.73;;;20.10;91.20;;;;;;5039191;28;20540;-81
2022/05/03 11:34:14;;;;;;;4.03;3.73;;;20.80;91.80;;;;;;5038856;28;20191;-82
2022/05/03 11:36:46;;;;;;;5.97;3.40;;;21.70;91.70;;;;;;5038142;28;20546;-80
2022/05/03 11:39:13;;;;;;;4.10;3.50;;;22.60;87.30;;;;;;5043661;28;20200;-80
2022/05/03 11:41:39;;;;;;;3.90;3.60;;;23.70;84.70;;;;;;5046656;28;20193;-79
2022/05/03 11:44:05;;;;;;;5.30;2.97;;;23.60;78.00;;;;;;5046507;28;20168;-79
2022/05/03 11:46:31;;;;;;;5.00;3.63;;;22.50;81.30;;;;;;5046625;28;20174;-79
2022/05/03 11:49:03;;;;;;;4.80;3.07;;;21.80;84.80;;;;;;5047338;28;20191;-79
2022/05/03 11:57:20;;;;;;;5.83;3.50;;;19.70;90.00;;;;;;5047718;28;20196;-81
2022/05/03 11:59:46;;;;;;;4.10;3.10;;;20.50;92.60;;;;;;5048587;28;20185;-80
2022/05/03 12:02:20;;;;;;;3.33;3.00;;;22.20;82.20;;;;;;5049593;28;20202;-80
2022/05/03 12:05:12;;;;;;;4.13;3.00;;;23.50;81.60;;;;;;5059522;28;20175;-79
2022/05/03 12:07:48;;;;;;;4.13;2.83;;;24.50;76.10;;;;;;5052997;28;20176;-79
2022/05/03 12:10:20;;;;;;;3.77;2.70;;;24.80;75.90;;;;;;5053471;28;20195;-79
2022/05/03 12:13:17;;;;;;;2.97;2.67;;;25.50;75.10;;;;;;5045326;28;20190;-80
2022/05/03 12:16:03;;;;;;;4.50;2.30;;;25.70;67.30;;;;;;5039994;28;20219;-77
2022/05/03 12:18:31;;;;;;;2.30;2.10;;;25.70;66.10;;;;;;5041319;28;20171;-78
2022/05/03 12:21:29;;;;;;;3.17;2.00;;;25.40;62.90;;;;;;5042058;28;20688;-78
2022/05/03 12:24:04;;;;;;;2.57;2.30;;;25.50;67.10;;;;;;5044892;28;20166;-78
2022/05/03 12:26:40;;;;;;;3.90;2.00;;;25.90;59.70;;;;;;5045936;28;20158;-79
2022/05/03 12:29:07;;;;;;;3.17;2.30;;;25.30;59.80;;;;;;5045379;28;20258;-79
2022/05/03 12:31:41;;;;;;;4.43;2.50;;;25.30;59.40;;;;;;5044946;28;20192;-80
2022/05/03 12:34:11;;;;;;;3.53;2.87;;;25.50;66.20;;;;;;5043919;28;20756;-79
2022/05/03 12:36:41;;;;;;;3.93;3.27;;;23.80;68.40;;;;;;5042284;28;20185;-78
2022/05/03 12:39:14;;;;;;;3.47;2.73;;;22.20;68.90;;;;;;5043006;28;20197;-81
2022/05/03 12:41:41;;;;;;;4.47;2.77;;;21.20;71.10;;;;;;5043838;28;20216;-81
2022/05/03 12:44:18;;;;;;;3.67;2.60;;;20.60;74.90;;;;;;5042341;28;20172;-81
2022/05/03 12:46:43;;;;;;;3.47;2.60;;;20.30;75.50;;;;;;5044707;28;20668;-80
2022/05/03 12:49:12;;;;;;;2.67;2.47;;;20.00;74.20;;;;;;5044364;28;20167;-81
2022/05/03 12:51:40;;;;;;;3.10;2.80;;;21.40;78.80;;;;;;5044198;28;20174;-81
2022/05/03 12:54:07;;;;;;;3.27;2.70;;;23.60;69.50;;;;;;5044626;28;20171;-81
2022/05/03 12:59:18;;;;;;;3.43;2.60;;;25.80;67.00;;;;;;5044085;28;20177;-82
2022/05/03 13:01:46;;;;;;;4.70;3.00;;;26.20;62.90;;;;;;5042607;28;20293;-80
2022/05/03 13:04:14;;;;;;;5.83;2.83;;;26.50;58.10;;;;;;5039450;28;20183;-80
2022/05/03 13:06:41;;;;;;;3.47;2.97;;;24.70;61.00;;;;;;5038017;28;20175;-77
2022/05/03 13:09:06;;;;;;;3.10;2.63;;;23.10;64.70;;;;;;5044161;28;20163;-79
2022/05/03 13:11:34;;;;;;;3.50;2.70;;;22.00;67.70;;;;;;5044205;28;20182;-79
2022/05/03 13:14:00;;;;;;;5.17;2.70;;;21.40;71.60;;;;;;5044307;28;20253;-79
2022/05/03 13:16:27;;;;;;;3.40;2.47;;;21.40;71.00;;;;;;5042236;28;20180;-79
2022/05/03 13:18:52;;;;;;;2.83;2.33;;;21.70;69.70;;;;;;5043008;28;20245;-80
2022/05/03 13:21:18;;;;;;;3.63;2.57;;;23.50;72.50;;;;;;5042412;28;20689;-82
2022/05/03 13:23:44;;;;;;;2.83;2.47;;;24.60;64.70;;;;;;5045072;28;20195;-82
2022/05/03 13:26:10;;;;;;;3.83;2.70;;;23.80;64.00;;;;;;5043940;28;20175;-81
2022/05/03 13:28:36;;;;;;;3.13;2.20;;;22.60;65.20;;;;;;5043576;28;20544;-82
2022/05/03 13:31:02;;;;;;;3.93;2.33;;;21.70;67.40;;;;;;5044804;28;20179;-82
2022/05/03 13:33:27;;;;;;;3.90;2.43;;;21.00;69.90;;;;;;5047676;28;20607;-80
2022/05/03 13:41:21;;;;;;;4.73;2.90;;;20.10;71.00;;;;;;5045544;28;20276;-81
2022/05/03 13:43:48;;;;;;;3.20;2.80;;;20.10;71.50;;;;;;5044952;28;20183;-80
2022/05/03 13:46:14;;;;;;;3.23;2.50;;;20.10;70.30;;;;;;5045744;28;20198;-80
2022/05/03 13:48:40;;;;;;;6.30;2.80;;;19.80;70.80;;;;;;5046619;28;20228;-80
2022/05/03 13:51:06;;;;;;;3.53;2.20;;;19.80;72.00;;;;;;5046204;28;20183;-80
2022/05/03 13:53:32;;;;;;;2.70;2.40;;;20.00;71.40;;;;;;5043865;28;20194;-79
2022/05/03 13:55:58;;;;;;;3.37;2.57;;;20.00;68.70;;;;;;5048108;28;20186;-81
2022/05/03 13:58:24;;;;;;;3.30;2.30;;;19.90;69.90;;;;;;5049268;28;20241;-80